sensor_id;sensor_type;location;lat;lon;timestamp;P1;durP1;ratioP1;P2;durP2;ratioP2
61188;SDS011;47054;39.716;2.904;2023-06-14T00:01:54;20.00;;;6.40;;
61188;SDS011;47054;39.716;2.904;2023-06-14T00:04:40;21.50;;;6.82;;
61188;SDS011;47054;39.716;2.904;2023-06-14T00:07:35;23.58;;;7.20;;
61188;SDS011;47054;39.716;2.904;2023-06-14T00:10:22;19.55;;;7.40;;
61188;SDS011;47054;39.716;2.904;2023-06-14T00:13:10;24.65;;;8.88;;
61188;SDS011;47054;39.716;2.904;2023-06-14T00:15:54;26.63;;;7.97;;
61188;SDS011;47054;39.716;2.904;2023-06-14T00:18:39;18.63;;;7.88;;
61188;SDS011;47054;39.716;2.904;2023-06-14T00:21:23;37.58;;;8.52;;
61188;SDS011;47054;39.716;2.904;2023-06-14T00:24:08;22.95;;;7.65;;
61188;SDS011;47054;39.716;2.904;2023-06-14T00:26:53;25.45;;;7.97;;
61188;SDS011;47054;39.716;2.904;2023-06-14T00:29:39;31.08;;;8.40;;
61188;SDS011;47054;39.716;2.904;2023-06-14T00:32:24;27.60;;;7.90;;
61188;SDS011;47054;39.716;2.904;2023-06-14T00:35:10;28.58;;;9.23;;
61188;SDS011;47054;39.716;2.904;2023-06-14T00:37:55;27.73;;;9.02;;
61188;SDS011;47054;39.716;2.904;2023-06-14T00:40:40;22.20;;;8.70;;
61188;SDS011;47054;39.716;2.904;2023-06-14T00:43:24;21.08;;;7.72;;
61188;SDS011;47054;39.716;2.904;2023-06-14T00:46:09;22.40;;;8.30;;
61188;SDS011;47054;39.716;2.904;2023-06-14T00:48:54;35.17;;;9.13;;
61188;SDS011;47054;39.716;2.904;2023-06-14T00:51:41;26.13;;;9.25;;
61188;SDS011;47054;39.716;2.904;2023-06-14T00:54:26;24.55;;;9.13;;
61188;SDS011;47054;39.716;2.904;2023-06-14T00:57:11;24.08;;;9.05;;
61188;SDS011;47054;39.716;2.904;2023-06-14T00:59:58;38.35;;;9.60;;
61188;SDS011;47054;39.716;2.904;2023-06-14T01:03:03;31.70;;;9.40;;
61188;SDS011;47054;39.716;2.904;2023-06-14T01:05:48;25.15;;;8.63;;
61188;SDS011;47054;39.716;2.904;2023-06-14T01:09:31;25.88;;;8.50;;
61188;SDS011;47054;39.716;2.904;2023-06-14T01:15:18;33.22;;;9.32;;
61188;SDS011;47054;39.716;2.904;2023-06-14T01:18:05;33.28;;;8.30;;
61188;SDS011;47054;39.716;2.904;2023-06-14T01:20:50;28.55;;;9.95;;
61188;SDS011;47054;39.716;2.904;2023-06-14T01:23:35;24.27;;;8.68;;
61188;SDS011;47054;39.716;2.904;2023-06-14T01:26:20;24.75;;;7.95;;
61188;SDS011;47054;39.716;2.904;2023-06-14T01:29:05;29.20;;;8.68;;
61188;SDS011;47054;39.716;2.904;2023-06-14T01:31:50;30.23;;;8.02;;
61188;SDS011;47054;39.716;2.904;2023-06-14T01:34:36;32.35;;;9.00;;
61188;SDS011;47054;39.716;2.904;2023-06-14T01:37:20;29.75;;;8.10;;
61188;SDS011;47054;39.716;2.904;2023-06-14T01:40:07;26.80;;;7.50;;
61188;SDS011;47054;39.716;2.904;2023-06-14T01:42:54;23.73;;;7.60;;
61188;SDS011;47054;39.716;2.904;2023-06-14T01:45:40;26.70;;;7.28;;
61188;SDS011;47054;39.716;2.904;2023-06-14T01:48:26;26.55;;;8.52;;
61188;SDS011;47054;39.716;2.904;2023-06-14T01:51:11;24.25;;;7.45;;
61188;SDS011;47054;39.716;2.904;2023-06-14T01:53:55;23.92;;;8.23;;
61188;SDS011;47054;39.716;2.904;2023-06-14T01:56:41;29.90;;;7.78;;
61188;SDS011;47054;39.716;2.904;2023-06-14T01:59:26;30.05;;;8.63;;
61188;SDS011;47054;39.716;2.904;2023-06-14T02:02:11;29.23;;;8.80;;
61188;SDS011;47054;39.716;2.904;2023-06-14T02:04:55;30.17;;;8.35;;
61188;SDS011;47054;39.716;2.904;2023-06-14T02:07:41;31.27;;;9.25;;
61188;SDS011;47054;39.716;2.904;2023-06-14T02:10:26;33.45;;;8.63;;
61188;SDS011;47054;39.716;2.904;2023-06-14T02:13:13;18.80;;;7.53;;
61188;SDS011;47054;39.716;2.904;2023-06-14T02:15:57;36.88;;;8.52;;
61188;SDS011;47054;39.716;2.904;2023-06-14T02:18:43;25.45;;;8.55;;
61188;SDS011;47054;39.716;2.904;2023-06-14T02:21:28;25.17;;;8.63;;
61188;SDS011;47054;39.716;2.904;2023-06-14T02:24:13;30.92;;;8.40;;
61188;SDS011;47054;39.716;2.904;2023-06-14T02:26:58;23.77;;;7.60;;
61188;SDS011;47054;39.716;2.904;2023-06-14T02:29:42;21.02;;;6.50;;
61188;SDS011;47054;39.716;2.904;2023-06-14T02:32:27;20.05;;;6.50;;
61188;SDS011;47054;39.716;2.904;2023-06-14T02:35:11;21.38;;;5.95;;
61188;SDS011;47054;39.716;2.904;2023-06-14T02:37:57;25.83;;;6.28;;
61188;SDS011;47054;39.716;2.904;2023-06-14T02:40:41;18.73;;;6.40;;
61188;SDS011;47054;39.716;2.904;2023-06-14T02:43:26;23.73;;;6.40;;
61188;SDS011;47054;39.716;2.904;2023-06-14T02:46:10;27.58;;;7.10;;
61188;SDS011;47054;39.716;2.904;2023-06-14T02:48:55;16.98;;;7.03;;
61188;SDS011;47054;39.716;2.904;2023-06-14T02:51:39;24.48;;;6.85;;
61188;SDS011;47054;39.716;2.904;2023-06-14T02:54:24;19.30;;;5.95;;
61188;SDS011;47054;39.716;2.904;2023-06-14T02:57:09;17.08;;;6.05;;
61188;SDS011;47054;39.716;2.904;2023-06-14T02:59:55;22.25;;;6.80;;
61188;SDS011;47054;39.716;2.904;2023-06-14T03:02:40;19.45;;;7.38;;
61188;SDS011;47054;39.716;2.904;2023-06-14T03:05:27;27.80;;;7.20;;
61188;SDS011;47054;39.716;2.904;2023-06-14T03:08:13;17.08;;;7.72;;
61188;SDS011;47054;39.716;2.904;2023-06-14T03:11:02;26.13;;;7.70;;
61188;SDS011;47054;39.716;2.904;2023-06-14T03:13:47;21.65;;;7.13;;
61188;SDS011;47054;39.716;2.904;2023-06-14T03:16:32;23.20;;;7.90;;
61188;SDS011;47054;39.716;2.904;2023-06-14T03:19:18;33.70;;;8.45;;
61188;SDS011;47054;39.716;2.904;2023-06-14T03:22:02;23.92;;;9.05;;
61188;SDS011;47054;39.716;2.904;2023-06-14T03:24:49;23.65;;;8.45;;
61188;SDS011;47054;39.716;2.904;2023-06-14T03:27:34;34.13;;;8.38;;
61188;SDS011;47054;39.716;2.904;2023-06-14T03:30:20;21.45;;;7.47;;
61188;SDS011;47054;39.716;2.904;2023-06-14T03:33:07;16.15;;;5.15;;
61188;SDS011;47054;39.716;2.904;2023-06-14T03:35:56;15.45;;;5.78;;
61188;SDS011;47054;39.716;2.904;2023-06-14T03:38:41;14.23;;;5.30;;
61188;SDS011;47054;39.716;2.904;2023-06-14T03:41:26;11.18;;;5.38;;
61188;SDS011;47054;39.716;2.904;2023-06-14T03:44:14;16.27;;;5.00;;
61188;SDS011;47054;39.716;2.904;2023-06-14T03:47:00;14.10;;;5.07;;
61188;SDS011;47054;39.716;2.904;2023-06-14T03:49:46;11.82;;;4.32;;
61188;SDS011;47054;39.716;2.904;2023-06-14T03:52:31;13.30;;;4.75;;
61188;SDS011;47054;39.716;2.904;2023-06-14T03:55:16;9.00;;;4.40;;
61188;SDS011;47054;39.716;2.904;2023-06-14T03:58:01;15.32;;;4.90;;
61188;SDS011;47054;39.716;2.904;2023-06-14T04:00:46;10.98;;;4.18;;
61188;SDS011;47054;39.716;2.904;2023-06-14T04:03:32;10.82;;;4.43;;
61188;SDS011;47054;39.716;2.904;2023-06-14T04:06:19;14.18;;;6.05;;
61188;SDS011;47054;39.716;2.904;2023-06-14T04:09:03;17.15;;;5.78;;
61188;SDS011;47054;39.716;2.904;2023-06-14T04:11:48;16.63;;;5.80;;
61188;SDS011;47054;39.716;2.904;2023-06-14T04:14:33;16.80;;;4.88;;
61188;SDS011;47054;39.716;2.904;2023-06-14T04:17:18;14.90;;;5.10;;
61188;SDS011;47054;39.716;2.904;2023-06-14T04:20:04;13.35;;;5.15;;
61188;SDS011;47054;39.716;2.904;2023-06-14T04:22:51;17.00;;;5.75;;
61188;SDS011;47054;39.716;2.904;2023-06-14T04:25:37;17.40;;;6.07;;
61188;SDS011;47054;39.716;2.904;2023-06-14T04:28:22;17.15;;;7.15;;
61188;SDS011;47054;39.716;2.904;2023-06-14T04:31:18;16.08;;;6.78;;
61188;SDS011;47054;39.716;2.904;2023-06-14T04:34:03;20.25;;;7.88;;
61188;SDS011;47054;39.716;2.904;2023-06-14T04:36:50;25.35;;;8.43;;
61188;SDS011;47054;39.716;2.904;2023-06-14T04:39:37;28.38;;;8.18;;
61188;SDS011;47054;39.716;2.904;2023-06-14T04:42:23;25.75;;;9.02;;
61188;SDS011;47054;39.716;2.904;2023-06-14T04:48:01;25.75;;;8.27;;
61188;SDS011;47054;39.716;2.904;2023-06-14T04:50:46;22.17;;;8.75;;
61188;SDS011;47054;39.716;2.904;2023-06-14T04:53:31;29.33;;;9.48;;
61188;SDS011;47054;39.716;2.904;2023-06-14T04:56:17;35.40;;;13.07;;
61188;SDS011;47054;39.716;2.904;2023-06-14T04:59:01;30.05;;;11.40;;
61188;SDS011;47054;39.716;2.904;2023-06-14T05:01:49;28.70;;;8.52;;
61188;SDS011;47054;39.716;2.904;2023-06-14T05:04:35;26.77;;;9.43;;
61188;SDS011;47054;39.716;2.904;2023-06-14T05:07:23;23.60;;;8.20;;
61188;SDS011;47054;39.716;2.904;2023-06-14T05:10:09;15.10;;;6.97;;
61188;SDS011;47054;39.716;2.904;2023-06-14T05:12:54;19.20;;;6.43;;
61188;SDS011;47054;39.716;2.904;2023-06-14T05:15:39;23.20;;;7.03;;
61188;SDS011;47054;39.716;2.904;2023-06-14T05:18:24;21.52;;;6.97;;
61188;SDS011;47054;39.716;2.904;2023-06-14T05:21:12;18.83;;;6.60;;
61188;SDS011;47054;39.716;2.904;2023-06-14T05:23:57;19.40;;;6.50;;
61188;SDS011;47054;39.716;2.904;2023-06-14T05:26:42;20.42;;;6.45;;
61188;SDS011;47054;39.716;2.904;2023-06-14T05:29:26;20.17;;;6.20;;
61188;SDS011;47054;39.716;2.904;2023-06-14T05:32:11;14.20;;;5.32;;
61188;SDS011;47054;39.716;2.904;2023-06-14T05:34:56;18.00;;;6.00;;
61188;SDS011;47054;39.716;2.904;2023-06-14T05:37:40;15.27;;;5.57;;
61188;SDS011;47054;39.716;2.904;2023-06-14T05:40:25;22.73;;;7.43;;
61188;SDS011;47054;39.716;2.904;2023-06-14T05:43:09;18.05;;;6.00;;
61188;SDS011;47054;39.716;2.904;2023-06-14T05:45:54;20.33;;;6.10;;
61188;SDS011;47054;39.716;2.904;2023-06-14T05:48:39;24.27;;;7.05;;
61188;SDS011;47054;39.716;2.904;2023-06-14T05:51:24;16.17;;;6.60;;
61188;SDS011;47054;39.716;2.904;2023-06-14T05:54:09;23.60;;;6.57;;
61188;SDS011;47054;39.716;2.904;2023-06-14T05:56:53;18.58;;;7.47;;
61188;SDS011;47054;39.716;2.904;2023-06-14T05:59:38;16.83;;;7.22;;
61188;SDS011;47054;39.716;2.904;2023-06-14T06:02:22;17.90;;;7.53;;
61188;SDS011;47054;39.716;2.904;2023-06-14T06:05:07;20.30;;;6.30;;
61188;SDS011;47054;39.716;2.904;2023-06-14T06:07:52;18.60;;;6.28;;
61188;SDS011;47054;39.716;2.904;2023-06-14T06:10:37;18.25;;;7.13;;
61188;SDS011;47054;39.716;2.904;2023-06-14T06:13:21;18.83;;;7.25;;
61188;SDS011;47054;39.716;2.904;2023-06-14T06:16:06;19.33;;;5.13;;
61188;SDS011;47054;39.716;2.904;2023-06-14T06:18:50;20.23;;;9.45;;
61188;SDS011;47054;39.716;2.904;2023-06-14T06:21:36;17.85;;;7.15;;
61188;SDS011;47054;39.716;2.904;2023-06-14T06:24:21;17.23;;;6.22;;
61188;SDS011;47054;39.716;2.904;2023-06-14T06:27:05;13.98;;;5.07;;
61188;SDS011;47054;39.716;2.904;2023-06-14T06:29:52;13.55;;;5.80;;
61188;SDS011;47054;39.716;2.904;2023-06-14T06:32:37;14.85;;;6.57;;
61188;SDS011;47054;39.716;2.904;2023-06-14T06:35:21;14.85;;;5.43;;
61188;SDS011;47054;39.716;2.904;2023-06-14T06:38:06;17.42;;;4.65;;
61188;SDS011;47054;39.716;2.904;2023-06-14T06:40:50;20.38;;;8.45;;
61188;SDS011;47054;39.716;2.904;2023-06-14T06:43:35;9.48;;;4.80;;
61188;SDS011;47054;39.716;2.904;2023-06-14T06:46:20;9.20;;;4.07;;
61188;SDS011;47054;39.716;2.904;2023-06-14T06:49:04;8.18;;;4.18;;
61188;SDS011;47054;39.716;2.904;2023-06-14T06:52:02;14.25;;;3.80;;
61188;SDS011;47054;39.716;2.904;2023-06-14T06:54:50;9.57;;;4.10;;
61188;SDS011;47054;39.716;2.904;2023-06-14T06:57:39;10.70;;;4.13;;
61188;SDS011;47054;39.716;2.904;2023-06-14T19:29:38;11.43;;;5.15;;
61188;SDS011;47054;39.716;2.904;2023-06-14T19:32:23;13.35;;;6.82;;
61188;SDS011;47054;39.716;2.904;2023-06-14T19:35:07;15.20;;;6.32;;
61188;SDS011;47054;39.716;2.904;2023-06-14T19:37:52;8.13;;;4.82;;
61188;SDS011;47054;39.716;2.904;2023-06-14T19:40:37;15.70;;;4.43;;
61188;SDS011;47054;39.716;2.904;2023-06-14T19:43:22;9.27;;;4.05;;
61188;SDS011;47054;39.716;2.904;2023-06-14T19:46:06;14.93;;;5.30;;
61188;SDS011;47054;39.716;2.904;2023-06-14T19:48:51;10.85;;;4.97;;
61188;SDS011;47054;39.716;2.904;2023-06-14T19:51:35;13.35;;;4.30;;
61188;SDS011;47054;39.716;2.904;2023-06-14T19:54:20;9.70;;;4.93;;
61188;SDS011;47054;39.716;2.904;2023-06-14T19:57:05;11.60;;;5.07;;
61188;SDS011;47054;39.716;2.904;2023-06-14T19:59:50;11.77;;;4.43;;
61188;SDS011;47054;39.716;2.904;2023-06-14T20:02:35;10.15;;;4.80;;
61188;SDS011;47054;39.716;2.904;2023-06-14T20:05:19;9.02;;;4.30;;
61188;SDS011;47054;39.716;2.904;2023-06-14T20:08:04;8.25;;;4.07;;
61188;SDS011;47054;39.716;2.904;2023-06-14T20:10:50;8.20;;;4.43;;
61188;SDS011;47054;39.716;2.904;2023-06-14T20:13:36;23.33;;;7.28;;
61188;SDS011;47054;39.716;2.904;2023-06-14T20:16:20;13.27;;;5.38;;
61188;SDS011;47054;39.716;2.904;2023-06-14T20:19:05;19.98;;;7.63;;
61188;SDS011;47054;39.716;2.904;2023-06-14T20:21:50;17.10;;;7.03;;
61188;SDS011;47054;39.716;2.904;2023-06-14T20:24:34;11.90;;;5.13;;
61188;SDS011;47054;39.716;2.904;2023-06-14T20:27:19;12.40;;;4.68;;
61188;SDS011;47054;39.716;2.904;2023-06-14T20:30:04;11.13;;;4.93;;
61188;SDS011;47054;39.716;2.904;2023-06-14T20:32:49;10.93;;;4.90;;
61188;SDS011;47054;39.716;2.904;2023-06-14T20:35:34;11.82;;;4.75;;
61188;SDS011;47054;39.716;2.904;2023-06-14T20:38:18;10.13;;;4.55;;
61188;SDS011;47054;39.716;2.904;2023-06-14T20:41:03;8.55;;;4.75;;
61188;SDS011;47054;39.716;2.904;2023-06-14T20:43:47;10.18;;;5.25;;
61188;SDS011;47054;39.716;2.904;2023-06-14T20:46:32;12.77;;;5.80;;
61188;SDS011;47054;39.716;2.904;2023-06-14T20:49:19;13.57;;;5.80;;
61188;SDS011;47054;39.716;2.904;2023-06-14T20:52:03;12.15;;;5.57;;
61188;SDS011;47054;39.716;2.904;2023-06-14T20:54:48;11.18;;;4.57;;
61188;SDS011;47054;39.716;2.904;2023-06-14T20:57:33;13.02;;;5.30;;
61188;SDS011;47054;39.716;2.904;2023-06-14T21:00:19;11.18;;;5.15;;
61188;SDS011;47054;39.716;2.904;2023-06-14T21:03:05;11.32;;;4.40;;
61188;SDS011;47054;39.716;2.904;2023-06-14T21:05:50;23.33;;;5.72;;
61188;SDS011;47054;39.716;2.904;2023-06-14T21:08:35;10.20;;;4.90;;
61188;SDS011;47054;39.716;2.904;2023-06-14T21:11:20;15.60;;;4.72;;
61188;SDS011;47054;39.716;2.904;2023-06-14T21:14:05;11.85;;;5.30;;
61188;SDS011;47054;39.716;2.904;2023-06-14T21:16:49;11.82;;;4.88;;
61188;SDS011;47054;39.716;2.904;2023-06-14T21:19:34;14.52;;;5.47;;
61188;SDS011;47054;39.716;2.904;2023-06-14T21:22:18;16.05;;;4.82;;
61188;SDS011;47054;39.716;2.904;2023-06-14T21:25:03;13.73;;;5.13;;
61188;SDS011;47054;39.716;2.904;2023-06-14T21:27:48;12.40;;;5.22;;
61188;SDS011;47054;39.716;2.904;2023-06-14T21:30:34;9.55;;;4.38;;
61188;SDS011;47054;39.716;2.904;2023-06-14T21:33:19;10.68;;;4.70;;
61188;SDS011;47054;39.716;2.904;2023-06-14T21:36:04;12.55;;;4.90;;
61188;SDS011;47054;39.716;2.904;2023-06-14T21:38:49;10.25;;;4.68;;
61188;SDS011;47054;39.716;2.904;2023-06-14T21:41:34;8.77;;;4.20;;
61188;SDS011;47054;39.716;2.904;2023-06-14T21:44:22;9.10;;;4.68;;
61188;SDS011;47054;39.716;2.904;2023-06-14T21:47:07;8.95;;;4.60;;
61188;SDS011;47054;39.716;2.904;2023-06-14T21:49:52;13.60;;;4.38;;
61188;SDS011;47054;39.716;2.904;2023-06-14T21:52:37;8.90;;;4.75;;
61188;SDS011;47054;39.716;2.904;2023-06-14T21:55:21;11.70;;;4.75;;
61188;SDS011;47054;39.716;2.904;2023-06-14T21:58:07;9.43;;;4.35;;
61188;SDS011;47054;39.716;2.904;2023-06-14T22:00:52;8.55;;;4.13;;
61188;SDS011;47054;39.716;2.904;2023-06-14T22:03:37;10.02;;;4.18;;
61188;SDS011;47054;39.716;2.904;2023-06-14T22:06:21;10.98;;;4.75;;
61188;SDS011;47054;39.716;2.904;2023-06-14T22:09:06;9.85;;;4.15;;
61188;SDS011;47054;39.716;2.904;2023-06-14T22:11:50;7.78;;;4.47;;
61188;SDS011;47054;39.716;2.904;2023-06-14T22:14:35;12.27;;;4.50;;
61188;SDS011;47054;39.716;2.904;2023-06-14T22:17:20;9.77;;;4.28;;
61188;SDS011;47054;39.716;2.904;2023-06-14T22:20:08;7.85;;;3.92;;
61188;SDS011;47054;39.716;2.904;2023-06-14T22:22:55;8.85;;;4.25;;
61188;SDS011;47054;39.716;2.904;2023-06-14T22:25:44;10.95;;;4.20;;
61188;SDS011;47054;39.716;2.904;2023-06-14T22:28:29;10.32;;;4.10;;
61188;SDS011;47054;39.716;2.904;2023-06-14T22:31:22;9.52;;;4.68;;
61188;SDS011;47054;39.716;2.904;2023-06-14T22:34:06;9.27;;;4.10;;
61188;SDS011;47054;39.716;2.904;2023-06-14T22:36:51;8.70;;;4.22;;
61188;SDS011;47054;39.716;2.904;2023-06-14T22:39:38;8.82;;;4.60;;
61188;SDS011;47054;39.716;2.904;2023-06-14T22:42:22;7.95;;;3.85;;
61188;SDS011;47054;39.716;2.904;2023-06-14T22:45:08;8.82;;;4.18;;
61188;SDS011;47054;39.716;2.904;2023-06-14T22:47:55;7.43;;;3.72;;
61188;SDS011;47054;39.716;2.904;2023-06-14T22:50:41;9.45;;;4.05;;
61188;SDS011;47054;39.716;2.904;2023-06-14T22:53:25;12.75;;;4.15;;
61188;SDS011;47054;39.716;2.904;2023-06-14T22:56:13;7.57;;;4.13;;
61188;SDS011;47054;39.716;2.904;2023-06-14T22:58:59;8.10;;;3.72;;
61188;SDS011;47054;39.716;2.904;2023-06-14T23:01:46;9.05;;;4.45;;
61188;SDS011;47054;39.716;2.904;2023-06-14T23:04:34;9.80;;;4.43;;
61188;SDS011;47054;39.716;2.904;2023-06-14T23:07:19;8.23;;;4.20;;
61188;SDS011;47054;39.716;2.904;2023-06-14T23:10:05;8.93;;;3.70;;
61188;SDS011;47054;39.716;2.904;2023-06-14T23:12:51;8.27;;;3.92;;
61188;SDS011;47054;39.716;2.904;2023-06-14T23:15:35;9.00;;;4.40;;
61188;SDS011;47054;39.716;2.904;2023-06-14T23:18:21;12.52;;;4.85;;
61188;SDS011;47054;39.716;2.904;2023-06-14T23:21:07;9.93;;;4.45;;
61188;SDS011;47054;39.716;2.904;2023-06-14T23:23:57;9.07;;;4.40;;
61188;SDS011;47054;39.716;2.904;2023-06-14T23:26:42;12.43;;;5.22;;
61188;SDS011;47054;39.716;2.904;2023-06-14T23:29:29;13.20;;;5.05;;
61188;SDS011;47054;39.716;2.904;2023-06-14T23:32:18;10.95;;;4.00;;
61188;SDS011;47054;39.716;2.904;2023-06-14T23:35:03;9.02;;;3.95;;
61188;SDS011;47054;39.716;2.904;2023-06-14T23:37:50;7.90;;;4.20;;
61188;SDS011;47054;39.716;2.904;2023-06-14T23:40:34;9.65;;;4.00;;
61188;SDS011;47054;39.716;2.904;2023-06-14T23:43:20;9.85;;;4.10;;
61188;SDS011;47054;39.716;2.904;2023-06-14T23:46:05;8.93;;;4.25;;
61188;SDS011;47054;39.716;2.904;2023-06-14T23:48:50;7.18;;;4.15;;
